Aviation Digital Data Service (ADDS)

Output produced by METARs form (0203 UTC 22 April 2019)
found at http://www.aviationweather.gov/metar/data/
 
METAR text: RPMZ 220100Z 07006KT 030V100 9999 FEW017 BKN090 29/25 Q1009 RMK A2980
Conditions at: RPMZ (ZAMBOANGA (CIV/A, PH) observed 0100 UTC 22 April 2019
Temperature: 29.0°C (84°F)
Dewpoint: 25.0°C (77°F) [RH = 79%]
Pressure (altimeter): 29.79 inches Hg (1009.0 mb)
Winds: from the ENE (70 degrees) at 7 MPH (6 knots; 3.1 m/s)
Visibility: 6 or more miles (10+ km)
Ceiling: 9000 feet AGL
Clouds: few clouds at 1700 feet AGL
broken clouds at 9000 feet AGL
Weather: no significant weather observed at this time

METAR text: RPMZ 220000Z 12003KT 060V180 9999 FEW017 BKN090 28/24 Q1009 RMK A2980
Conditions at: RPMZ (ZAMBOANGA (CIV/A, PH) observed 0000 UTC 22 April 2019
Temperature: 28.0°C (82°F)
Dewpoint: 24.0°C (75°F) [RH = 79%]
Pressure (altimeter): 29.79 inches Hg (1009.0 mb)
Winds: from the ESE (120 degrees) at 3 MPH (3 knots; 1.5 m/s)
Visibility: 6 or more miles (10+ km)
Ceiling: 9000 feet AGL
Clouds: few clouds at 1700 feet AGL
broken clouds at 9000 feet AGL
Weather: no significant weather observed at this time

METAR text: RPMZ 212300Z VRB02KT 9999 FEW017 BKN090 27/24 Q1009 RMK A2977
Conditions at: RPMZ (ZAMBOANGA (CIV/A, PH) observed 2300 UTC 21 April 2019
Temperature: 27.0°C (81°F)
Dewpoint: 24.0°C (75°F) [RH = 84%]
Pressure (altimeter): 29.79 inches Hg (1009.0 mb)
Winds: variable direction winds at 2 MPH (2 knots; 1.0 m/s)
Visibility: 6 or more miles (10+ km)
Ceiling: 9000 feet AGL
Clouds: few clouds at 1700 feet AGL
broken clouds at 9000 feet AGL
Weather: no significant weather observed at this time

METAR text: RPMZ 212200Z VRB01KT 9999 FEW017 BKN090 26/24 Q1008 RMK A2977
Conditions at: RPMZ (ZAMBOANGA (CIV/A, PH) observed 2200 UTC 21 April 2019
Temperature: 26.0°C (79°F)
Dewpoint: 24.0°C (75°F) [RH = 89%]
Pressure (altimeter): 29.76 inches Hg (1008.0 mb)
Winds: variable direction winds at 1 MPH (1 knots; 0.5 m/s)
Visibility: 6 or more miles (10+ km)
Ceiling: 9000 feet AGL
Clouds: few clouds at 1700 feet AGL
broken clouds at 9000 feet AGL
Weather: no significant weather observed at this time

METAR text: RPMZ 212100Z VRB01KT 9999 SCT017 BKN090 26/24 Q1007 RMK A2974
Conditions at: RPMZ (ZAMBOANGA (CIV/A, PH) observed 2100 UTC 21 April 2019
Temperature: 26.0°C (79°F)
Dewpoint: 24.0°C (75°F) [RH = 89%]
Pressure (altimeter): 29.73 inches Hg (1007.0 mb)
Winds: variable direction winds at 1 MPH (1 knots; 0.5 m/s)
Visibility: 6 or more miles (10+ km)
Ceiling: 9000 feet AGL
Clouds: scattered clouds at 1700 feet AGL
broken clouds at 9000 feet AGL
Weather: no significant weather observed at this time

METAR text: RPMZ 211800Z VRB01KT 9999 FEW016CB SCT017 26/24 Q1008 RMK A2977 CB NE
Conditions at: RPMZ (ZAMBOANGA (CIV/A, PH) observed 1800 UTC 21 April 2019
Temperature: 26.0°C (79°F)
Dewpoint: 24.0°C (75°F) [RH = 89%]
Pressure (altimeter): 29.76 inches Hg (1008.0 mb)
Winds: variable direction winds at 1 MPH (1 knots; 0.5 m/s)
Visibility: 6 or more miles (10+ km)
Ceiling: at least 12,000 feet AGL
Clouds: few clouds at 1600 feet AGL
scattered clouds at 1700 feet AGL
Weather: no significant weather observed at this time

METAR text: RPMZ 211500Z 28005KT 9999 FEW017 27/24 Q1010 RMK A2983
Conditions at: RPMZ (ZAMBOANGA (CIV/A, PH) observed 1500 UTC 21 April 2019
Temperature: 27.0°C (81°F)
Dewpoint: 24.0°C (75°F) [RH = 84%]
Pressure (altimeter): 29.82 inches Hg (1010.0 mb)
Winds: from the W (280 degrees) at 6 MPH (5 knots; 2.6 m/s)
Visibility: 6 or more miles (10+ km)
Ceiling: at least 12,000 feet AGL
Clouds: few clouds at 1700 feet AGL
Weather: no significant weather observed at this time

METAR text: RPMZ 211200Z 29008KT 9999 FEW016CB FEW017 27/24 Q1009 RMK A2980 CB W/ FRQNT LTG NE
Conditions at: RPMZ (ZAMBOANGA (CIV/A, PH) observed 1200 UTC 21 April 2019
Temperature: 27.0°C (81°F)
Dewpoint: 24.0°C (75°F) [RH = 84%]
Pressure (altimeter): 29.79 inches Hg (1009.0 mb)
Winds: from the WNW (290 degrees) at 9 MPH (8 knots; 4.1 m/s)
Visibility: 6 or more miles (10+ km)
Ceiling: at least 12,000 feet AGL
Clouds: few clouds at 1600 feet AGL
few clouds at 1700 feet AGL
Weather: no significant weather observed at this time

METAR text: RPMZ 211000Z 28009KT 9999 FEW016CB FEW017 SCT090 28/24 Q1008 RMK A2977 CB NE
Conditions at: RPMZ (ZAMBOANGA (CIV/A, PH) observed 1000 UTC 21 April 2019
Temperature: 28.0°C (82°F)
Dewpoint: 24.0°C (75°F) [RH = 79%]
Pressure (altimeter): 29.76 inches Hg (1008.0 mb)
Winds: from the W (280 degrees) at 10 MPH (9 knots; 4.6 m/s)
Visibility: 6 or more miles (10+ km)
Ceiling: at least 12,000 feet AGL
Clouds: few clouds at 1600 feet AGL
few clouds at 1700 feet AGL
scattered clouds at 9000 feet AGL
Weather: no significant weather observed at this time

METAR text: RPMZ 210900Z 26009KT 9999 FEW017 SCT090 29/25 Q1007 RMK A2974
Conditions at: RPMZ (ZAMBOANGA (CIV/A, PH) observed 0900 UTC 21 April 2019
Temperature: 29.0°C (84°F)
Dewpoint: 25.0°C (77°F) [RH = 79%]
Pressure (altimeter): 29.73 inches Hg (1007.0 mb)
Winds: from the W (260 degrees) at 10 MPH (9 knots; 4.6 m/s)
Visibility: 6 or more miles (10+ km)
Ceiling: at least 12,000 feet AGL
Clouds: few clouds at 1700 feet AGL
scattered clouds at 9000 feet AGL
Weather: no significant weather observed at this time

METAR text: RPMZ 210800Z 26007KT 230V300 9999 FEW016CB FEW017 BKN090 30/24 Q1997 RMK A2974 CB N NW
Conditions at: RPMZ (ZAMBOANGA (CIV/A, PH) observed 0800 UTC 21 April 2019
Temperature: 30.0°C (86°F)
Dewpoint: 24.0°C (75°F) [RH = 70%]
Pressure (altimeter): missing
Winds: from the W (260 degrees) at 8 MPH (7 knots; 3.6 m/s)
Visibility: 6 or more miles (10+ km)
Ceiling: 9000 feet AGL
Clouds: few clouds at 1600 feet AGL
few clouds at 1700 feet AGL
broken clouds at 9000 feet AGL
Weather: no significant weather observed at this time

METAR text: RPMZ 210700Z 26008KT 9999 FEW016CB FEW017 SCT090 30/24 Q1007 RMK A2974 CB NW S
Conditions at: RPMZ (ZAMBOANGA (CIV/A, PH) observed 0700 UTC 21 April 2019
Temperature: 30.0°C (86°F)
Dewpoint: 24.0°C (75°F) [RH = 70%]
Pressure (altimeter): 29.73 inches Hg (1007.0 mb)
Winds: from the W (260 degrees) at 9 MPH (8 knots; 4.1 m/s)
Visibility: 6 or more miles (10+ km)
Ceiling: at least 12,000 feet AGL
Clouds: few clouds at 1600 feet AGL
few clouds at 1700 feet AGL
scattered clouds at 9000 feet AGL
Weather: no significant weather observed at this time

METAR text: RPMZ 210600Z 26008KT 220V290 9999 FEW017 BKN090 30/24 Q1008 RMK A2977
Conditions at: RPMZ (ZAMBOANGA (CIV/A, PH) observed 0600 UTC 21 April 2019
Temperature: 30.0°C (86°F)
Dewpoint: 24.0°C (75°F) [RH = 70%]
Pressure (altimeter): 29.76 inches Hg (1008.0 mb)
Winds: from the W (260 degrees) at 9 MPH (8 knots; 4.1 m/s)
Visibility: 6 or more miles (10+ km)
Ceiling: 9000 feet AGL
Clouds: few clouds at 1700 feet AGL
broken clouds at 9000 feet AGL
Weather: no significant weather observed at this time

METAR text: RPMZ 210500Z 26008KT 220V280 9999 FEW017 BKN090 30/24 Q1009 RMK A2980
Conditions at: RPMZ (ZAMBOANGA (CIV/A, PH) observed 0500 UTC 21 April 2019
Temperature: 30.0°C (86°F)
Dewpoint: 24.0°C (75°F) [RH = 70%]
Pressure (altimeter): 29.79 inches Hg (1009.0 mb)
Winds: from the W (260 degrees) at 9 MPH (8 knots; 4.1 m/s)
Visibility: 6 or more miles (10+ km)
Ceiling: 9000 feet AGL
Clouds: few clouds at 1700 feet AGL
broken clouds at 9000 feet AGL
Weather: no significant weather observed at this time

METAR text: RPMZ 210400Z 26006KT 230V290 9999 FEW017 BKN090 28/24 Q1010 RMK A2983
Conditions at: RPMZ (ZAMBOANGA (CIV/A, PH) observed 0400 UTC 21 April 2019
Temperature: 28.0°C (82°F)
Dewpoint: 24.0°C (75°F) [RH = 79%]
Pressure (altimeter): 29.82 inches Hg (1010.0 mb)
Winds: from the W (260 degrees) at 7 MPH (6 knots; 3.1 m/s)
Visibility: 6 or more miles (10+ km)
Ceiling: 9000 feet AGL
Clouds: few clouds at 1700 feet AGL
broken clouds at 9000 feet AGL
Weather: no significant weather observed at this time

METAR text: RPMZ 210300Z 27005KT 200V300 9999 FEW017 OVC090 29/25 Q1010 RESHRA RMK A2983
Conditions at: RPMZ (ZAMBOANGA (CIV/A, PH) observed 0300 UTC 21 April 2019
Temperature: 29.0°C (84°F)
Dewpoint: 25.0°C (77°F) [RH = 79%]
Pressure (altimeter): 29.82 inches Hg (1010.0 mb)
Winds: from the W (270 degrees) at 6 MPH (5 knots; 2.6 m/s)
Visibility: 6 or more miles (10+ km)
Ceiling: 9000 feet AGL
Clouds: few clouds at 1700 feet AGL
overcast cloud deck at 9000 feet AGL
Weather: no significant weather observed at this time

METAR text: RPMZ 210200Z 26004KT 230V290 9000 -SHRA SCT017 OVC090 28/25 Q1011 RMK A2985
Conditions at: RPMZ (ZAMBOANGA (CIV/A, PH) observed 0200 UTC 21 April 2019
Temperature: 28.0°C (82°F)
Dewpoint: 25.0°C (77°F) [RH = 84%]
Pressure (altimeter): 29.85 inches Hg (1011.0 mb)
Winds: from the W (260 degrees) at 5 MPH (4 knots; 2.1 m/s)
Visibility: 6 miles ( 9 km)
Ceiling: 9000 feet AGL
Clouds: scattered clouds at 1700 feet AGL
overcast cloud deck at 9000 feet AGL
Weather: -SHRA  (light rain showers)

METAR text: RPMZ 210100Z VRB02KT 9999 SCT017 OVC090 27/25 Q1010 RMK A2983
Conditions at: RPMZ (ZAMBOANGA (CIV/A, PH) observed 0100 UTC 21 April 2019
Temperature: 27.0°C (81°F)
Dewpoint: 25.0°C (77°F) [RH = 89%]
Pressure (altimeter): 29.82 inches Hg (1010.0 mb)
Winds: variable direction winds at 2 MPH (2 knots; 1.0 m/s)
Visibility: 6 or more miles (10+ km)
Ceiling: 9000 feet AGL
Clouds: scattered clouds at 1700 feet AGL
overcast cloud deck at 9000 feet AGL
Weather: no significant weather observed at this time

METAR text: RPMZ 210000Z 29004KT 270V330 9999 SCT017 BKN090 28/25 Q1010 RMK A2983
Conditions at: RPMZ (ZAMBOANGA (CIV/A, PH) observed 0000 UTC 21 April 2019
Temperature: 28.0°C (82°F)
Dewpoint: 25.0°C (77°F) [RH = 84%]
Pressure (altimeter): 29.82 inches Hg (1010.0 mb)
Winds: from the WNW (290 degrees) at 5 MPH (4 knots; 2.1 m/s)
Visibility: 6 or more miles (10+ km)
Ceiling: 9000 feet AGL
Clouds: scattered clouds at 1700 feet AGL
broken clouds at 9000 feet AGL
Weather: no significant weather observed at this time

METAR text: RPMZ 202300Z 28004KT 9999 SCT017 BKN090 27/25 Q1010 RMK A2983
Conditions at: RPMZ (ZAMBOANGA (CIV/A, PH) observed 2300 UTC 20 April 2019
Temperature: 27.0°C (81°F)
Dewpoint: 25.0°C (77°F) [RH = 89%]
Pressure (altimeter): 29.82 inches Hg (1010.0 mb)
Winds: from the W (280 degrees) at 5 MPH (4 knots; 2.1 m/s)
Visibility: 6 or more miles (10+ km)
Ceiling: 9000 feet AGL
Clouds: scattered clouds at 1700 feet AGL
broken clouds at 9000 feet AGL
Weather: no significant weather observed at this time

METAR text: RPMZ 202200Z 29004KT 9999 VCSH FEW016CB SCT017 OVC090 27/24 Q1009 RMK A2980 CB E/VCSH
Conditions at: RPMZ (ZAMBOANGA (CIV/A, PH) observed 2200 UTC 20 April 2019
Temperature: 27.0°C (81°F)
Dewpoint: 24.0°C (75°F) [RH = 84%]
Pressure (altimeter): 29.79 inches Hg (1009.0 mb)
Winds: from the WNW (290 degrees) at 5 MPH (4 knots; 2.1 m/s)
Visibility: 6 or more miles (10+ km)
Ceiling: 9000 feet AGL
Clouds: few clouds at 1600 feet AGL
scattered clouds at 1700 feet AGL
overcast cloud deck at 9000 feet AGL
Weather: VCSH  (showers in vicinity)

METAR text: RPMZ 202100Z 27005KT 9999 FEW016CB FEW017 26/24 Q1009 RMK A2980
Conditions at: RPMZ (ZAMBOANGA (CIV/A, PH) observed 2100 UTC 20 April 2019
Temperature: 26.0°C (79°F)
Dewpoint: 24.0°C (75°F) [RH = 89%]
Pressure (altimeter): 29.79 inches Hg (1009.0 mb)
Winds: from the W (270 degrees) at 6 MPH (5 knots; 2.6 m/s)
Visibility: 6 or more miles (10+ km)
Ceiling: at least 12,000 feet AGL
Clouds: few clouds at 1600 feet AGL
few clouds at 1700 feet AGL
Weather: no significant weather observed at this time

METAR text: RPMZ 201800Z 28006KT 9999 FEW017 26/24 Q1008 RMK A2977
Conditions at: RPMZ (ZAMBOANGA (CIV/A, PH) observed 1800 UTC 20 April 2019
Temperature: 26.0°C (79°F)
Dewpoint: 24.0°C (75°F) [RH = 89%]
Pressure (altimeter): 29.76 inches Hg (1008.0 mb)
Winds: from the W (280 degrees) at 7 MPH (6 knots; 3.1 m/s)
Visibility: 6 or more miles (10+ km)
Ceiling: at least 12,000 feet AGL
Clouds: few clouds at 1700 feet AGL
Weather: no significant weather observed at this time

METAR text: RPMZ 201500Z 26006KT 220V280 9999 FEW017 27/25 Q1010 RMK A2983
Conditions at: RPMZ (ZAMBOANGA (CIV/A, PH) observed 1500 UTC 20 April 2019
Temperature: 27.0°C (81°F)
Dewpoint: 25.0°C (77°F) [RH = 89%]
Pressure (altimeter): 29.82 inches Hg (1010.0 mb)
Winds: from the W (260 degrees) at 7 MPH (6 knots; 3.1 m/s)
Visibility: 6 or more miles (10+ km)
Ceiling: at least 12,000 feet AGL
Clouds: few clouds at 1700 feet AGL
Weather: no significant weather observed at this time

Forecast for: RPMZ (ZAMBOANGA (CIV/A, PH)
Text: TAF RPMZ 212300Z 2200/2224 27006KT 9999 FEW017 SCT090
Forecast period: 0000 UTC 22 April 2019 to 0000 UTC 23 April 2019
Forecast type: FROM: standard forecast or significant change
Winds: from the W (270 degrees) at 7 MPH (6 knots; 3.1 m/s)
Visibility: 6 or more miles 10+ km)
Ceiling: at least 12,000 feet AGL
Clouds: few clouds at 1700 feet AGL
scattered clouds at 9000 feet AGL
Weather: no significant weather forecast for this period
Text: TEMPO 2200/2206 29008KT FEW016CB SCT017 BKN090
Forecast period: 0000 to 0600 UTC 22 April 2019
Forecast type: TEMPORARY: The following changes expected for less than half the time period
Winds: from the WNW (290 degrees) at 9 MPH (8 knots; 4.1 m/s)
Visibility: missing
Ceiling: 9000 feet AGL
Clouds: few clouds at 1600 feet AGL
scattered clouds at 1700 feet AGL
broken clouds at 9000 feet AGL
Weather: no significant weather forecast for this period